sensor_id;sensor_type;location;lat;lon;timestamp;P1;durP1;ratioP1;P2;durP2;ratioP2
39176;SDS011;24904;52.208;21.192;2022-12-22T00:02:39;65.60;;;32.50;;
39176;SDS011;24904;52.208;21.192;2022-12-22T00:08:00;61.00;;;29.10;;
39176;SDS011;24904;52.208;21.192;2022-12-22T00:13:21;56.50;;;30.10;;
39176;SDS011;24904;52.208;21.192;2022-12-22T00:18:42;67.50;;;31.30;;
39176;SDS011;24904;52.208;21.192;2022-12-22T00:24:04;62.70;;;29.90;;
39176;SDS011;24904;52.208;21.192;2022-12-22T00:29:26;63.70;;;32.10;;
39176;SDS011;24904;52.208;21.192;2022-12-22T00:34:52;62.10;;;31.90;;
39176;SDS011;24904;52.208;21.192;2022-12-22T00:40:16;59.50;;;30.20;;
39176;SDS011;24904;52.208;21.192;2022-12-22T00:45:39;70.60;;;29.80;;
39176;SDS011;24904;52.208;21.192;2022-12-22T00:51:00;65.90;;;29.30;;
39176;SDS011;24904;52.208;21.192;2022-12-22T00:56:21;61.20;;;28.70;;
39176;SDS011;24904;52.208;21.192;2022-12-22T01:01:42;64.20;;;31.00;;
39176;SDS011;24904;52.208;21.192;2022-12-22T01:07:04;62.40;;;29.70;;
39176;SDS011;24904;52.208;21.192;2022-12-22T01:12:29;65.90;;;29.30;;
39176;SDS011;24904;52.208;21.192;2022-12-22T01:17:52;60.10;;;29.30;;
39176;SDS011;24904;52.208;21.192;2022-12-22T01:23:13;67.20;;;29.70;;
39176;SDS011;24904;52.208;21.192;2022-12-22T01:28:35;67.10;;;29.40;;
39176;SDS011;24904;52.208;21.192;2022-12-22T01:33:56;69.20;;;31.10;;
39176;SDS011;24904;52.208;21.192;2022-12-22T01:39:17;72.40;;;30.30;;
39176;SDS011;24904;52.208;21.192;2022-12-22T01:44:38;69.10;;;31.10;;
39176;SDS011;24904;52.208;21.192;2022-12-22T01:49:59;62.00;;;28.10;;
39176;SDS011;24904;52.208;21.192;2022-12-22T01:55:22;57.20;;;26.60;;
39176;SDS011;24904;52.208;21.192;2022-12-22T02:00:45;62.40;;;28.40;;
39176;SDS011;24904;52.208;21.192;2022-12-22T02:06:12;62.50;;;28.20;;
39176;SDS011;24904;52.208;21.192;2022-12-22T02:11:41;62.70;;;28.50;;
39176;SDS011;24904;52.208;21.192;2022-12-22T02:17:14;70.80;;;29.30;;
39176;SDS011;24904;52.208;21.192;2022-12-22T02:22:43;70.20;;;28.70;;
39176;SDS011;24904;52.208;21.192;2022-12-22T02:28:11;65.90;;;28.70;;
39176;SDS011;24904;52.208;21.192;2022-12-22T02:33:34;59.80;;;27.30;;
39176;SDS011;24904;52.208;21.192;2022-12-22T02:38:56;61.70;;;27.50;;
39176;SDS011;24904;52.208;21.192;2022-12-22T02:44:26;64.50;;;24.00;;
39176;SDS011;24904;52.208;21.192;2022-12-22T02:49:56;56.70;;;24.10;;
39176;SDS011;24904;52.208;21.192;2022-12-22T02:55:21;56.60;;;23.40;;
39176;SDS011;24904;52.208;21.192;2022-12-22T03:00:43;56.80;;;25.10;;
39176;SDS011;24904;52.208;21.192;2022-12-22T03:06:05;56.60;;;24.30;;
39176;SDS011;24904;52.208;21.192;2022-12-22T03:11:26;53.10;;;23.80;;
39176;SDS011;24904;52.208;21.192;2022-12-22T03:16:48;53.70;;;24.30;;
39176;SDS011;24904;52.208;21.192;2022-12-22T03:22:09;57.70;;;26.90;;
39176;SDS011;24904;52.208;21.192;2022-12-22T03:27:30;51.60;;;23.80;;
39176;SDS011;24904;52.208;21.192;2022-12-22T03:32:33;54.90;;;25.10;;
39176;SDS011;24904;52.208;21.192;2022-12-22T03:37:36;52.90;;;25.70;;
39176;SDS011;24904;52.208;21.192;2022-12-22T03:42:39;53.10;;;25.10;;
39176;SDS011;24904;52.208;21.192;2022-12-22T03:48:00;52.50;;;25.10;;
39176;SDS011;24904;52.208;21.192;2022-12-22T03:53:03;53.30;;;24.60;;
39176;SDS011;24904;52.208;21.192;2022-12-22T03:58:06;54.30;;;26.60;;
39176;SDS011;24904;52.208;21.192;2022-12-22T04:03:09;51.10;;;24.90;;
39176;SDS011;24904;52.208;21.192;2022-12-22T04:08:12;51.50;;;24.90;;
39176;SDS011;24904;52.208;21.192;2022-12-22T04:13:15;55.90;;;25.00;;
39176;SDS011;24904;52.208;21.192;2022-12-22T04:18:18;54.00;;;25.50;;
39176;SDS011;24904;52.208;21.192;2022-12-22T04:23:21;51.40;;;24.30;;
39176;SDS011;24904;52.208;21.192;2022-12-22T04:28:24;51.40;;;24.70;;
39176;SDS011;24904;52.208;21.192;2022-12-22T04:33:27;47.30;;;24.20;;
39176;SDS011;24904;52.208;21.192;2022-12-22T04:39:57;55.20;;;25.50;;
39176;SDS011;24904;52.208;21.192;2022-12-22T04:45:00;48.50;;;25.90;;
39176;SDS011;24904;52.208;21.192;2022-12-22T04:50:04;53.40;;;26.40;;
39176;SDS011;24904;52.208;21.192;2022-12-22T04:55:09;61.10;;;26.90;;
39176;SDS011;24904;52.208;21.192;2022-12-22T05:00:13;53.70;;;26.30;;
39176;SDS011;24904;52.208;21.192;2022-12-22T05:05:17;48.70;;;25.00;;
39176;SDS011;24904;52.208;21.192;2022-12-22T05:10:20;51.00;;;24.60;;
39176;SDS011;24904;52.208;21.192;2022-12-22T05:15:23;51.90;;;23.50;;
39176;SDS011;24904;52.208;21.192;2022-12-22T05:20:27;48.70;;;25.30;;
39176;SDS011;24904;52.208;21.192;2022-12-22T05:25:31;53.50;;;24.60;;
39176;SDS011;24904;52.208;21.192;2022-12-22T05:30:34;44.30;;;23.50;;
39176;SDS011;24904;52.208;21.192;2022-12-22T05:35:37;51.70;;;25.00;;
39176;SDS011;24904;52.208;21.192;2022-12-22T05:40:40;50.70;;;24.30;;
39176;SDS011;24904;52.208;21.192;2022-12-22T05:45:43;51.50;;;25.00;;
39176;SDS011;24904;52.208;21.192;2022-12-22T05:50:47;43.90;;;23.00;;
39176;SDS011;24904;52.208;21.192;2022-12-22T05:55:50;43.30;;;22.90;;
39176;SDS011;24904;52.208;21.192;2022-12-22T06:00:55;45.40;;;23.80;;
39176;SDS011;24904;52.208;21.192;2022-12-22T06:05:59;49.00;;;26.00;;
39176;SDS011;24904;52.208;21.192;2022-12-22T06:11:02;50.40;;;25.30;;
39176;SDS011;24904;52.208;21.192;2022-12-22T06:16:06;48.80;;;25.30;;
39176;SDS011;24904;52.208;21.192;2022-12-22T06:21:09;41.90;;;23.30;;
39176;SDS011;24904;52.208;21.192;2022-12-22T06:26:12;51.90;;;25.80;;
39176;SDS011;24904;52.208;21.192;2022-12-22T06:31:17;49.00;;;25.00;;
39176;SDS011;24904;52.208;21.192;2022-12-22T06:36:20;43.40;;;24.40;;
39176;SDS011;24904;52.208;21.192;2022-12-22T06:41:23;40.50;;;22.30;;
39176;SDS011;24904;52.208;21.192;2022-12-22T06:46:41;46.60;;;24.30;;
39176;SDS011;24904;52.208;21.192;2022-12-22T06:51:44;46.50;;;25.00;;
39176;SDS011;24904;52.208;21.192;2022-12-22T06:56:47;39.20;;;22.00;;
39176;SDS011;24904;52.208;21.192;2022-12-22T07:01:50;43.10;;;23.70;;
39176;SDS011;24904;52.208;21.192;2022-12-22T07:06:53;41.70;;;24.30;;
39176;SDS011;24904;52.208;21.192;2022-12-22T07:11:56;44.10;;;24.80;;
39176;SDS011;24904;52.208;21.192;2022-12-22T07:16:59;42.80;;;23.20;;
39176;SDS011;24904;52.208;21.192;2022-12-22T07:22:02;37.70;;;21.90;;
39176;SDS011;24904;52.208;21.192;2022-12-22T07:27:05;42.50;;;22.20;;
39176;SDS011;24904;52.208;21.192;2022-12-22T07:32:09;41.00;;;22.50;;
39176;SDS011;24904;52.208;21.192;2022-12-22T07:37:12;43.50;;;22.30;;
39176;SDS011;24904;52.208;21.192;2022-12-22T07:42:15;41.50;;;23.10;;
39176;SDS011;24904;52.208;21.192;2022-12-22T07:47:36;42.50;;;23.10;;
39176;SDS011;24904;52.208;21.192;2022-12-22T07:52:39;40.30;;;22.10;;
39176;SDS011;24904;52.208;21.192;2022-12-22T07:57:42;44.20;;;23.00;;
39176;SDS011;24904;52.208;21.192;2022-12-22T08:07:36;43.40;;;23.50;;
39176;SDS011;24904;52.208;21.192;2022-12-22T08:12:39;45.50;;;23.20;;
39176;SDS011;24904;52.208;21.192;2022-12-22T08:17:42;44.20;;;24.30;;
39176;SDS011;24904;52.208;21.192;2022-12-22T08:22:45;40.10;;;23.30;;
39176;SDS011;24904;52.208;21.192;2022-12-22T08:27:49;39.20;;;22.40;;
39176;SDS011;24904;52.208;21.192;2022-12-22T08:32:54;41.00;;;23.00;;
39176;SDS011;24904;52.208;21.192;2022-12-22T08:37:57;43.90;;;23.30;;
39176;SDS011;24904;52.208;21.192;2022-12-22T08:43:06;35.60;;;20.70;;
39176;SDS011;24904;52.208;21.192;2022-12-22T08:48:12;39.30;;;21.10;;
39176;SDS011;24904;52.208;21.192;2022-12-22T08:53:15;34.10;;;20.00;;
39176;SDS011;24904;52.208;21.192;2022-12-22T08:58:18;39.00;;;22.40;;
39176;SDS011;24904;52.208;21.192;2022-12-22T09:03:22;41.10;;;22.00;;
39176;SDS011;24904;52.208;21.192;2022-12-22T09:08:25;39.60;;;21.40;;
39176;SDS011;24904;52.208;21.192;2022-12-22T09:13:28;36.30;;;20.30;;
39176;SDS011;24904;52.208;21.192;2022-12-22T09:18:31;40.50;;;22.20;;
39176;SDS011;24904;52.208;21.192;2022-12-22T09:23:34;33.50;;;19.80;;
39176;SDS011;24904;52.208;21.192;2022-12-22T09:32:31;35.80;;;20.80;;
39176;SDS011;24904;52.208;21.192;2022-12-22T09:37:36;36.90;;;20.30;;
39176;SDS011;24904;52.208;21.192;2022-12-22T09:42:41;37.50;;;22.10;;
39176;SDS011;24904;52.208;21.192;2022-12-22T09:47:47;38.10;;;21.20;;
39176;SDS011;24904;52.208;21.192;2022-12-22T09:52:56;39.30;;;21.30;;
39176;SDS011;24904;52.208;21.192;2022-12-22T09:58:04;35.10;;;21.40;;
39176;SDS011;24904;52.208;21.192;2022-12-22T10:03:20;42.60;;;22.10;;
39176;SDS011;24904;52.208;21.192;2022-12-22T10:14:11;36.80;;;20.30;;
39176;SDS011;24904;52.208;21.192;2022-12-22T10:19:19;38.70;;;21.60;;
39176;SDS011;24904;52.208;21.192;2022-12-22T10:24:27;38.20;;;21.30;;
39176;SDS011;24904;52.208;21.192;2022-12-22T10:29:37;35.30;;;20.10;;
39176;SDS011;24904;52.208;21.192;2022-12-22T10:34:56;40.20;;;22.50;;
39176;SDS011;24904;52.208;21.192;2022-12-22T10:40:14;38.90;;;21.80;;
39176;SDS011;24904;52.208;21.192;2022-12-22T10:45:22;43.10;;;22.00;;
39176;SDS011;24904;52.208;21.192;2022-12-22T10:50:28;35.70;;;21.00;;
39176;SDS011;24904;52.208;21.192;2022-12-22T10:55:34;41.90;;;22.80;;
39176;SDS011;24904;52.208;21.192;2022-12-22T11:00:40;32.80;;;20.30;;
39176;SDS011;24904;52.208;21.192;2022-12-22T11:05:46;40.50;;;22.00;;
39176;SDS011;24904;52.208;21.192;2022-12-22T11:10:52;44.40;;;22.60;;
39176;SDS011;24904;52.208;21.192;2022-12-22T11:22:47;44.10;;;23.90;;
39176;SDS011;24904;52.208;21.192;2022-12-22T11:28:03;39.50;;;23.40;;
39176;SDS011;24904;52.208;21.192;2022-12-22T11:33:23;44.80;;;25.70;;
39176;SDS011;24904;52.208;21.192;2022-12-22T11:38:39;46.30;;;26.50;;
39176;SDS011;24904;52.208;21.192;2022-12-22T11:46:50;48.20;;;27.40;;
39176;SDS011;24904;52.208;21.192;2022-12-22T11:52:09;54.30;;;29.40;;
39176;SDS011;24904;52.208;21.192;2022-12-22T11:57:28;47.20;;;27.10;;
39176;SDS011;24904;52.208;21.192;2022-12-22T12:02:47;43.10;;;27.10;;
39176;SDS011;24904;52.208;21.192;2022-12-22T12:08:20;53.90;;;27.70;;
39176;SDS011;24904;52.208;21.192;2022-12-22T12:13:32;46.80;;;26.50;;
39176;SDS011;24904;52.208;21.192;2022-12-22T12:18:48;48.60;;;28.00;;
39176;SDS011;24904;52.208;21.192;2022-12-22T12:24:18;50.30;;;27.20;;
39176;SDS011;24904;52.208;21.192;2022-12-22T12:29:36;46.40;;;25.90;;
39176;SDS011;24904;52.208;21.192;2022-12-22T12:34:43;42.40;;;24.80;;
39176;SDS011;24904;52.208;21.192;2022-12-22T12:39:53;45.90;;;25.50;;
39176;SDS011;24904;52.208;21.192;2022-12-22T12:45:18;48.20;;;25.80;;
39176;SDS011;24904;52.208;21.192;2022-12-22T12:50:37;39.30;;;23.30;;
39176;SDS011;24904;52.208;21.192;2022-12-22T13:01:11;44.50;;;22.70;;
39176;SDS011;24904;52.208;21.192;2022-12-22T13:06:50;39.10;;;22.10;;
39176;SDS011;24904;52.208;21.192;2022-12-22T13:11:55;39.30;;;21.70;;
39176;SDS011;24904;52.208;21.192;2022-12-22T13:22:51;31.10;;;17.90;;
39176;SDS011;24904;52.208;21.192;2022-12-22T13:27:59;31.00;;;18.00;;
39176;SDS011;24904;52.208;21.192;2022-12-22T13:33:06;34.80;;;18.80;;
39176;SDS011;24904;52.208;21.192;2022-12-22T13:38:28;34.60;;;17.40;;
39176;SDS011;24904;52.208;21.192;2022-12-22T13:43:34;32.00;;;19.80;;
39176;SDS011;24904;52.208;21.192;2022-12-22T13:48:40;32.20;;;17.10;;
39176;SDS011;24904;52.208;21.192;2022-12-22T13:53:48;32.70;;;19.60;;
39176;SDS011;24904;52.208;21.192;2022-12-22T13:58:57;36.90;;;20.30;;
39176;SDS011;24904;52.208;21.192;2022-12-22T14:04:04;34.50;;;19.10;;
39176;SDS011;24904;52.208;21.192;2022-12-22T14:09:15;31.80;;;19.00;;
39176;SDS011;24904;52.208;21.192;2022-12-22T14:14:24;35.20;;;19.40;;
39176;SDS011;24904;52.208;21.192;2022-12-22T14:19:31;32.70;;;19.00;;
39176;SDS011;24904;52.208;21.192;2022-12-22T14:24:45;35.80;;;19.00;;
39176;SDS011;24904;52.208;21.192;2022-12-22T14:29:55;31.60;;;18.90;;
39176;SDS011;24904;52.208;21.192;2022-12-22T14:35:05;35.10;;;20.40;;
39176;SDS011;24904;52.208;21.192;2022-12-22T14:40:32;35.70;;;20.50;;
39176;SDS011;24904;52.208;21.192;2022-12-22T14:45:38;33.30;;;19.80;;
39176;SDS011;24904;52.208;21.192;2022-12-22T14:50:47;35.60;;;21.00;;
39176;SDS011;24904;52.208;21.192;2022-12-22T14:55:53;37.90;;;19.80;;
39176;SDS011;24904;52.208;21.192;2022-12-22T15:01:12;42.10;;;24.60;;
39176;SDS011;24904;52.208;21.192;2022-12-22T15:06:30;44.10;;;24.20;;
39176;SDS011;24904;52.208;21.192;2022-12-22T15:11:37;42.40;;;24.60;;
39176;SDS011;24904;52.208;21.192;2022-12-22T15:16:46;41.80;;;24.60;;
39176;SDS011;24904;52.208;21.192;2022-12-22T15:21:52;47.10;;;26.30;;
39176;SDS011;24904;52.208;21.192;2022-12-22T15:26:57;45.50;;;25.80;;
39176;SDS011;24904;52.208;21.192;2022-12-22T15:32:02;45.30;;;26.30;;
39176;SDS011;24904;52.208;21.192;2022-12-22T15:42:15;44.00;;;25.80;;
39176;SDS011;24904;52.208;21.192;2022-12-22T15:47:20;44.60;;;25.30;;
39176;SDS011;24904;52.208;21.192;2022-12-22T15:52:25;45.00;;;24.60;;
39176;SDS011;24904;52.208;21.192;2022-12-22T15:57:31;44.30;;;24.80;;
39176;SDS011;24904;52.208;21.192;2022-12-22T16:02:36;44.30;;;23.90;;
39176;SDS011;24904;52.208;21.192;2022-12-22T16:07:41;41.80;;;23.90;;
39176;SDS011;24904;52.208;21.192;2022-12-22T16:12:47;43.40;;;23.20;;
39176;SDS011;24904;52.208;21.192;2022-12-22T16:18:01;43.00;;;23.60;;
39176;SDS011;24904;52.208;21.192;2022-12-22T16:23:06;49.00;;;24.50;;
39176;SDS011;24904;52.208;21.192;2022-12-22T16:28:19;43.50;;;24.20;;
39176;SDS011;24904;52.208;21.192;2022-12-22T16:33:25;44.70;;;23.70;;
39176;SDS011;24904;52.208;21.192;2022-12-22T16:38:30;44.20;;;24.30;;
39176;SDS011;24904;52.208;21.192;2022-12-22T16:43:37;43.80;;;25.20;;
39176;SDS011;24904;52.208;21.192;2022-12-22T16:48:43;40.40;;;23.10;;
39176;SDS011;24904;52.208;21.192;2022-12-22T16:53:50;44.90;;;24.90;;
39176;SDS011;24904;52.208;21.192;2022-12-22T16:58:56;44.90;;;25.90;;
39176;SDS011;24904;52.208;21.192;2022-12-22T17:04:02;44.30;;;24.90;;
39176;SDS011;24904;52.208;21.192;2022-12-22T17:09:11;43.10;;;25.40;;
39176;SDS011;24904;52.208;21.192;2022-12-22T17:14:24;48.90;;;25.50;;
39176;SDS011;24904;52.208;21.192;2022-12-22T17:19:33;42.50;;;24.60;;
39176;SDS011;24904;52.208;21.192;2022-12-22T17:24:38;50.30;;;28.20;;
39176;SDS011;24904;52.208;21.192;2022-12-22T17:30:01;45.80;;;26.10;;
39176;SDS011;24904;52.208;21.192;2022-12-22T17:35:10;49.60;;;27.40;;
39176;SDS011;24904;52.208;21.192;2022-12-22T17:40:17;46.10;;;25.00;;
39176;SDS011;24904;52.208;21.192;2022-12-22T17:45:27;43.80;;;23.90;;
39176;SDS011;24904;52.208;21.192;2022-12-22T17:50:32;42.10;;;24.10;;
39176;SDS011;24904;52.208;21.192;2022-12-22T17:55:37;43.20;;;21.60;;
39176;SDS011;24904;52.208;21.192;2022-12-22T18:00:43;38.30;;;21.60;;
39176;SDS011;24904;52.208;21.192;2022-12-22T18:13:57;45.10;;;27.20;;
39176;SDS011;24904;52.208;21.192;2022-12-22T18:19:00;45.50;;;26.20;;
39176;SDS011;24904;52.208;21.192;2022-12-22T18:24:05;42.00;;;26.00;;
39176;SDS011;24904;52.208;21.192;2022-12-22T18:29:15;46.40;;;25.10;;
39176;SDS011;24904;52.208;21.192;2022-12-22T18:34:19;44.60;;;26.10;;
39176;SDS011;24904;52.208;21.192;2022-12-22T18:39:22;43.50;;;26.00;;
39176;SDS011;24904;52.208;21.192;2022-12-22T18:44:25;47.50;;;26.50;;
39176;SDS011;24904;52.208;21.192;2022-12-22T18:49:28;51.50;;;28.60;;
39176;SDS011;24904;52.208;21.192;2022-12-22T18:54:31;50.30;;;25.60;;
39176;SDS011;24904;52.208;21.192;2022-12-22T18:59:37;47.30;;;27.40;;
39176;SDS011;24904;52.208;21.192;2022-12-22T19:04:40;44.60;;;27.10;;
39176;SDS011;24904;52.208;21.192;2022-12-22T19:09:43;47.50;;;28.20;;
39176;SDS011;24904;52.208;21.192;2022-12-22T19:14:46;45.90;;;25.60;;
39176;SDS011;24904;52.208;21.192;2022-12-22T19:19:52;47.80;;;27.80;;
39176;SDS011;24904;52.208;21.192;2022-12-22T19:24:55;53.30;;;28.00;;
39176;SDS011;24904;52.208;21.192;2022-12-22T19:29:59;51.50;;;29.00;;
39176;SDS011;24904;52.208;21.192;2022-12-22T19:35:02;50.40;;;28.90;;
39176;SDS011;24904;52.208;21.192;2022-12-22T19:40:08;54.60;;;29.70;;
39176;SDS011;24904;52.208;21.192;2022-12-22T19:45:16;51.60;;;26.60;;
39176;SDS011;24904;52.208;21.192;2022-12-22T19:50:22;47.00;;;27.20;;
39176;SDS011;24904;52.208;21.192;2022-12-22T19:55:28;48.80;;;28.40;;
39176;SDS011;24904;52.208;21.192;2022-12-22T20:00:35;51.50;;;27.80;;
39176;SDS011;24904;52.208;21.192;2022-12-22T20:05:39;47.00;;;26.90;;
39176;SDS011;24904;52.208;21.192;2022-12-22T20:10:42;47.50;;;26.70;;
39176;SDS011;24904;52.208;21.192;2022-12-22T20:15:47;48.20;;;28.60;;
39176;SDS011;24904;52.208;21.192;2022-12-22T20:20:51;47.80;;;27.90;;
39176;SDS011;24904;52.208;21.192;2022-12-22T20:25:58;49.10;;;28.60;;
39176;SDS011;24904;52.208;21.192;2022-12-22T20:31:03;47.90;;;27.40;;
39176;SDS011;24904;52.208;21.192;2022-12-22T20:36:11;44.00;;;26.50;;
39176;SDS011;24904;52.208;21.192;2022-12-22T20:41:20;46.00;;;27.00;;
39176;SDS011;24904;52.208;21.192;2022-12-22T20:46:24;44.50;;;26.40;;
39176;SDS011;24904;52.208;21.192;2022-12-22T20:51:29;55.70;;;28.80;;
39176;SDS011;24904;52.208;21.192;2022-12-22T20:56:34;48.10;;;28.00;;
39176;SDS011;24904;52.208;21.192;2022-12-22T21:01:39;50.80;;;30.10;;
39176;SDS011;24904;52.208;21.192;2022-12-22T21:06:43;49.60;;;27.90;;
39176;SDS011;24904;52.208;21.192;2022-12-22T21:11:49;48.00;;;27.20;;
39176;SDS011;24904;52.208;21.192;2022-12-22T21:16:52;47.70;;;27.30;;
39176;SDS011;24904;52.208;21.192;2022-12-22T21:21:55;41.70;;;25.70;;
39176;SDS011;24904;52.208;21.192;2022-12-22T21:26:58;41.70;;;25.90;;
39176;SDS011;24904;52.208;21.192;2022-12-22T21:32:01;44.70;;;25.00;;
39176;SDS011;24904;52.208;21.192;2022-12-22T21:37:04;48.80;;;25.90;;
39176;SDS011;24904;52.208;21.192;2022-12-22T21:42:16;47.30;;;24.80;;
39176;SDS011;24904;52.208;21.192;2022-12-22T21:47:20;43.80;;;24.20;;
39176;SDS011;24904;52.208;21.192;2022-12-22T21:52:23;40.50;;;25.10;;
39176;SDS011;24904;52.208;21.192;2022-12-22T21:57:26;46.90;;;24.80;;
39176;SDS011;24904;52.208;21.192;2022-12-22T22:02:29;40.90;;;21.30;;
39176;SDS011;24904;52.208;21.192;2022-12-22T22:07:32;43.30;;;23.40;;
39176;SDS011;24904;52.208;21.192;2022-12-22T22:12:35;44.90;;;23.30;;
39176;SDS011;24904;52.208;21.192;2022-12-22T22:17:38;38.10;;;22.00;;
39176;SDS011;24904;52.208;21.192;2022-12-22T22:22:41;40.10;;;23.40;;
39176;SDS011;24904;52.208;21.192;2022-12-22T22:27:45;44.90;;;23.40;;
39176;SDS011;24904;52.208;21.192;2022-12-22T22:32:48;42.70;;;22.80;;
39176;SDS011;24904;52.208;21.192;2022-12-22T22:37:52;39.80;;;21.30;;
39176;SDS011;24904;52.208;21.192;2022-12-22T22:42:56;35.10;;;21.10;;
39176;SDS011;24904;52.208;21.192;2022-12-22T22:47:59;38.90;;;20.60;;
39176;SDS011;24904;52.208;21.192;2022-12-22T22:53:02;36.60;;;20.20;;
39176;SDS011;24904;52.208;21.192;2022-12-22T22:58:05;39.30;;;19.90;;
39176;SDS011;24904;52.208;21.192;2022-12-22T23:03:08;35.50;;;20.10;;
39176;SDS011;24904;52.208;21.192;2022-12-22T23:08:11;30.20;;;18.40;;
39176;SDS011;24904;52.208;21.192;2022-12-22T23:13:14;38.40;;;19.20;;
39176;SDS011;24904;52.208;21.192;2022-12-22T23:18:17;26.30;;;17.00;;
39176;SDS011;24904;52.208;21.192;2022-12-22T23:23:20;30.20;;;18.40;;
39176;SDS011;24904;52.208;21.192;2022-12-22T23:28:23;29.20;;;17.30;;
39176;SDS011;24904;52.208;21.192;2022-12-22T23:33:26;33.60;;;18.00;;
39176;SDS011;24904;52.208;21.192;2022-12-22T23:38:32;24.70;;;15.90;;
39176;SDS011;24904;52.208;21.192;2022-12-22T23:43:36;25.80;;;17.20;;
39176;SDS011;24904;52.208;21.192;2022-12-22T23:48:39;31.10;;;18.40;;
39176;SDS011;24904;52.208;21.192;2022-12-22T23:53:42;30.80;;;16.00;;
39176;SDS011;24904;52.208;21.192;2022-12-22T23:58:45;29.60;;;15.60;;
